Time;durP1;ratioP1;P1;durP2;ratioP2;P2;SDS_P1;SDS_P2;PMS_P1;PMS_P2;Temp;Humidity;BMP_temperature;BMP_pressure;BME280_temperature;BME280_humidity;BME280_pressure;Samples;Min_cycle;Max_cycle;Signal;HPM_P1;HPM_P2
2023/12/06 00:02:01;;;;;;;0.00;0.00;;;-0.20;99.90;;;;;;20993400;28;20032;-49
2023/12/06 00:12:03;;;;;;;0.00;0.00;;;-0.20;99.90;;;;;;20991688;28;20040;-54
2023/12/06 00:22:04;;;;;;;0.10;0.00;;;-0.40;99.90;;;;;;20991634;28;20114;-53
2023/12/06 00:32:08;;;;;;;0.03;0.00;;;-0.60;99.90;;;;;;20991479;28;20444;-54
2023/12/06 00:42:09;;;;;;;0.17;0.00;;;-0.80;99.90;;;;;;20991021;28;20039;-52
2023/12/06 00:52:14;;;;;;;0.05;0.00;;;-0.60;99.90;;;;;;20990570;28;20036;-53
2023/12/06 01:02:16;;;;;;;0.00;0.00;;;-0.70;99.90;;;;;;20990080;28;20036;-51
2023/12/06 01:12:19;;;;;;;0.00;0.00;;;-0.80;99.90;;;;;;20989460;28;20054;-52
2023/12/06 01:22:21;;;;;;;0.20;0.10;;;-0.60;99.90;;;;;;20991470;28;20040;-53
2023/12/06 01:32:23;;;;;;;0.00;0.00;;;-0.50;99.90;;;;;;21005391;28;20098;-54
2023/12/06 01:42:24;;;;;;;0.03;0.00;;;-0.40;99.90;;;;;;21003825;28;20478;-53
2023/12/06 01:52:27;;;;;;;0.20;0.00;;;-0.20;99.90;;;;;;21003271;28;20394;-46
2023/12/06 02:02:30;;;;;;;0.00;0.00;;;-0.40;99.90;;;;;;20984545;28;20090;-47
2023/12/06 02:12:31;;;;;;;0.10;0.00;;;-0.30;99.90;;;;;;21001569;28;20032;-49
2023/12/06 02:22:34;;;;;;;0.00;0.00;;;-0.10;99.90;;;;;;20947386;28;20056;-48
2023/12/06 02:32:37;;;;;;;0.00;0.00;;;-0.10;99.90;;;;;;20917794;28;20037;-52
2023/12/06 02:42:38;;;;;;;0.08;0.00;;;-0.30;99.90;;;;;;20916770;28;20048;-53
2023/12/06 02:52:40;;;;;;;0.10;0.00;;;-0.50;99.90;;;;;;20915922;28;20029;-50
2023/12/06 03:02:42;;;;;;;0.10;0.00;;;-0.50;99.90;;;;;;20915039;28;20140;-50
2023/12/06 03:12:43;;;;;;;0.00;0.00;;;-0.40;99.90;;;;;;20914398;28;20041;-56
2023/12/06 03:22:45;;;;;;;0.90;0.00;;;-0.20;99.90;;;;;;20968312;28;20074;-55
2023/12/06 03:32:47;;;;;;;0.20;0.00;;;-0.80;99.90;;;;;;20994698;28;20045;-49
2023/12/06 03:42:48;;;;;;;0.00;0.00;;;-0.60;99.90;;;;;;20993514;28;20037;-52
2023/12/06 03:52:50;;;;;;;0.32;0.10;;;-0.40;99.90;;;;;;20990834;28;20037;-50
2023/12/06 04:02:54;;;;;;;0.00;0.00;;;-0.40;99.90;;;;;;20990670;28;20040;-53
2023/12/06 04:12:55;;;;;;;0.00;0.00;;;-0.60;99.90;;;;;;20989248;28;20032;-53
2023/12/06 04:22:57;;;;;;;0.40;0.00;;;-0.80;99.90;;;;;;20989107;28;20036;-54
2023/12/06 04:33:00;;;;;;;0.00;0.00;;;-0.60;99.90;;;;;;20988914;28;20398;-50
2023/12/06 04:43:01;;;;;;;0.00;0.00;;;-0.80;99.90;;;;;;20987835;28;20036;-51
2023/12/06 04:53:03;;;;;;;0.00;0.00;;;-1.20;99.90;;;;;;20986761;28;20044;-51
2023/12/06 05:03:08;;;;;;;0.00;0.00;;;-1.20;99.90;;;;;;20987671;28;20028;-50
2023/12/06 05:13:09;;;;;;;0.90;0.00;;;-1.10;99.90;;;;;;20986806;28;20040;-52
2023/12/06 05:23:14;;;;;;;0.73;0.50;;;-1.40;99.90;;;;;;20986115;28;20040;-48
2023/12/06 05:33:16;;;;;;;0.00;0.00;;;-1.60;99.90;;;;;;20986299;28;20044;-53
2023/12/06 05:43:17;;;;;;;0.00;0.00;;;-1.50;99.90;;;;;;20984269;28;20040;-49
2023/12/06 05:53:19;;;;;;;0.00;0.00;;;-1.00;99.90;;;;;;20984675;28;20086;-51
2023/12/06 06:03:21;;;;;;;0.00;0.00;;;-0.80;99.90;;;;;;20987864;28;20075;-46
2023/12/06 06:13:28;;;;;;;0.00;0.00;;;-0.60;99.90;;;;;;20999268;28;20033;-56
2023/12/06 06:23:30;;;;;;;0.10;0.00;;;-0.50;99.90;;;;;;20998627;28;20094;-51
2023/12/06 06:33:32;;;;;;;0.00;0.00;;;-0.30;99.90;;;;;;20998553;28;20040;-47
2023/12/06 06:43:34;;;;;;;0.00;0.00;;;0.00;99.90;;;;;;20997737;28;20093;-55
2023/12/06 06:53:35;;;;;;;0.00;0.00;;;-0.10;99.90;;;;;;20996910;28;20037;-53
2023/12/06 07:03:37;;;;;;;0.00;0.00;;;-0.60;99.90;;;;;;20996253;28;20075;-52
2023/12/06 07:13:39;;;;;;;0.20;0.00;;;-0.80;99.90;;;;;;20993871;28;20040;-48
2023/12/06 07:23:41;;;;;;;0.00;0.00;;;-1.00;99.90;;;;;;20994127;28;20040;-53
2023/12/06 07:33:43;;;;;;;0.00;0.00;;;-0.80;99.90;;;;;;20993970;28;20087;-50
2023/12/06 07:43:45;;;;;;;0.10;0.00;;;-0.60;99.90;;;;;;20991953;28;20440;-51
2023/12/06 07:53:46;;;;;;;0.10;0.00;;;0.30;99.90;;;;;;20991731;28;20082;-55
2023/12/06 08:03:48;;;;;;;0.00;0.00;;;1.40;99.90;;;;;;20991075;28;20566;-52
2023/12/06 08:13:50;;;;;;;0.00;0.00;;;2.00;99.90;;;;;;20990186;28;20078;-51
2023/12/06 08:23:51;;;;;;;0.05;0.00;;;2.30;99.90;;;;;;20988865;28;20058;-49
2023/12/06 08:33:53;;;;;;;0.08;0.00;;;3.10;99.90;;;;;;20989168;28;20551;-53
2023/12/06 08:43:55;;;;;;;0.10;0.00;;;3.80;98.80;;;;;;20988411;28;20031;-50
2023/12/06 08:53:57;;;;;;;1.38;0.00;;;3.90;99.80;;;;;;20988197;28;20032;-51
2023/12/06 09:03:59;;;;;;;0.00;0.00;;;4.60;96.80;;;;;;20989082;28;20032;-50
2023/12/06 09:14:01;;;;;;;0.85;0.20;;;5.60;94.70;;;;;;20987254;28;20094;-50
2023/12/06 09:24:04;;;;;;;0.38;0.20;;;6.80;97.10;;;;;;20983221;28;20106;-49
2023/12/06 09:34:06;;;;;;;0.50;0.20;;;7.60;96.80;;;;;;20986718;28;20044;-53
2023/12/06 09:44:08;;;;;;;0.38;0.22;;;8.00;96.70;;;;;;20997586;28;20041;-53
2023/12/06 09:54:10;;;;;;;0.68;0.35;;;8.30;95.20;;;;;;21001283;28;20024;-53
2023/12/06 10:04:12;;;;;;;0.28;0.20;;;8.40;94.40;;;;;;21000396;28;20102;-49
2023/12/06 10:14:20;;;;;;;1.48;0.30;;;8.50;94.70;;;;;;20999411;28;20040;-49
2023/12/06 10:24:22;;;;;;;0.50;0.22;;;8.80;92.40;;;;;;20998546;28;20051;-53
2023/12/06 10:34:27;;;;;;;0.20;0.03;;;9.10;92.90;;;;;;20998210;28;20083;-49
2023/12/06 10:44:29;;;;;;;0.93;0.38;;;9.50;90.00;;;;;;20997090;28;20040;-51
2023/12/06 10:54:32;;;;;;;0.95;0.50;;;8.70;94.10;;;;;;20995529;28;20032;-51
2023/12/06 11:04:39;;;;;;;0.85;0.35;;;7.00;96.00;;;;;;20978015;28;20037;-50
2023/12/06 11:15:26;;;;;;;0.50;0.30;;;5.40;96.30;;;;;;20995219;28;20028;-50
2023/12/06 11:25:28;;;;;;;0.30;0.20;;;5.00;96.90;;;;;;20916705;28;20410;-51
2023/12/06 11:35:42;;;;;;;0.60;0.30;;;5.30;97.60;;;;;;20911150;28;20025;-54
2023/12/06 11:45:46;;;;;;;1.73;0.50;;;5.80;97.50;;;;;;20910241;28;20397;-49
2023/12/06 11:55:48;;;;;;;0.80;0.30;;;7.30;97.00;;;;;;20925050;28;20055;-50
2023/12/06 12:05:50;;;;;;;0.40;0.30;;;8.10;94.70;;;;;;20990088;28;20029;-51
2023/12/06 12:16:01;;;;;;;0.50;0.30;;;8.40;93.60;;;;;;20907809;28;20036;-53
2023/12/06 12:26:03;;;;;;;3.05;0.40;;;8.30;94.00;;;;;;20924106;28;20567;-54
2023/12/06 12:36:06;;;;;;;0.45;0.20;;;8.60;93.30;;;;;;20986428;28;20039;-48
2023/12/06 12:46:13;;;;;;;0.40;0.30;;;8.20;93.60;;;;;;20906213;28;20036;-50
2023/12/06 12:56:17;;;;;;;0.68;0.32;;;7.40;95.20;;;;;;20915530;28;20040;-52
2023/12/06 13:06:20;;;;;;;0.80;0.40;;;6.20;95.80;;;;;;20983189;28;20025;-54
2023/12/06 13:16:22;;;;;;;0.50;0.30;;;5.80;95.80;;;;;;20912006;28;20029;-52
2023/12/06 13:26:24;;;;;;;0.98;0.38;;;5.70;95.90;;;;;;20920682;28;20029;-51
2023/12/06 13:36:25;;;;;;;0.50;0.32;;;5.60;95.70;;;;;;20956584;28;20041;-51
2023/12/06 13:46:27;;;;;;;0.40;0.30;;;5.70;97.50;;;;;;20919754;28;20044;-50
2023/12/06 13:56:30;;;;;;;0.40;0.30;;;5.40;96.80;;;;;;20918596;28;20540;-54
2023/12/06 14:06:32;;;;;;;0.28;0.20;;;4.70;97.40;;;;;;20917894;28;20386;-51
2023/12/06 14:16:34;;;;;;;0.52;0.30;;;3.80;97.80;;;;;;20958820;28;20040;-51
2023/12/06 14:26:36;;;;;;;0.60;0.30;;;3.10;99.50;;;;;;20998145;28;20032;-55
2023/12/06 14:36:39;;;;;;;0.60;0.30;;;2.60;99.90;;;;;;20997556;28;20033;-49
2023/12/06 14:46:41;;;;;;;0.50;0.30;;;2.20;99.90;;;;;;20997891;28;20024;-47
2023/12/06 14:56:43;;;;;;;0.30;0.20;;;1.70;99.90;;;;;;20996522;28;20039;-54
2023/12/06 15:06:45;;;;;;;1.88;0.15;;;1.40;99.90;;;;;;20996137;28;20046;-52
2023/12/06 15:16:47;;;;;;;0.47;0.30;;;1.00;99.90;;;;;;20995100;28;20413;-53
2023/12/06 15:26:49;;;;;;;0.20;0.10;;;0.80;99.90;;;;;;20992263;28;20094;-54
2023/12/06 15:36:51;;;;;;;0.32;0.10;;;0.70;99.90;;;;;;20992600;28;20500;-51
2023/12/06 15:46:53;;;;;;;1.08;0.00;;;0.40;99.90;;;;;;20992669;28;20028;-56
2023/12/06 15:56:55;;;;;;;0.03;0.00;;;0.00;99.90;;;;;;20990863;28;20036;-48
2023/12/06 16:06:56;;;;;;;0.00;0.00;;;-0.30;99.90;;;;;;20991840;28;20031;-53
2023/12/06 16:16:59;;;;;;;0.00;0.00;;;-0.60;99.90;;;;;;20992633;28;20044;-50
2023/12/06 16:27:00;;;;;;;0.00;0.00;;;-0.90;99.90;;;;;;20992202;28;20036;-50
2023/12/06 16:37:02;;;;;;;0.00;0.00;;;-1.00;99.90;;;;;;20991527;28;20033;-51
2023/12/06 16:47:04;;;;;;;0.20;0.00;;;-1.10;99.90;;;;;;20972722;28;20032;-53
2023/12/06 16:57:14;;;;;;;0.00;0.00;;;-1.30;99.90;;;;;;21015121;28;20079;-53
2023/12/06 17:07:17;;;;;;;0.00;0.00;;;-1.30;99.90;;;;;;20988696;28;20053;-51
2023/12/06 17:17:20;;;;;;;0.00;0.00;;;-1.50;99.90;;;;;;20989790;28;20044;-49
2023/12/06 17:27:21;;;;;;;0.03;0.00;;;-1.40;99.90;;;;;;20981512;28;20037;-52
2023/12/06 17:37:23;;;;;;;0.15;0.00;;;-1.20;99.90;;;;;;20989152;28;20036;-53
2023/12/06 17:47:26;;;;;;;1.67;0.00;;;-1.20;99.90;;;;;;20988831;28;20028;-54
2023/12/06 17:57:27;;;;;;;0.00;0.00;;;-1.40;99.90;;;;;;20987896;28;20025;-51
2023/12/06 18:07:35;;;;;;;0.00;0.00;;;-1.30;99.90;;;;;;21002629;28;20093;-54
2023/12/06 18:17:37;;;;;;;0.15;0.00;;;-1.30;99.90;;;;;;21002389;28;20059;-52
2023/12/06 18:27:42;;;;;;;0.00;0.00;;;-1.40;99.90;;;;;;21001480;28;20047;-52
2023/12/06 18:37:44;;;;;;;0.00;0.00;;;-1.40;99.90;;;;;;21001030;28;20032;-53
2023/12/06 18:47:46;;;;;;;0.00;0.00;;;-1.30;99.90;;;;;;20982480;28;20036;-53
2023/12/06 18:57:47;;;;;;;0.00;0.00;;;-1.20;99.90;;;;;;20997825;28;20440;-47
2023/12/06 19:07:49;;;;;;;0.00;0.00;;;-1.10;99.90;;;;;;20998717;28;20394;-53
2023/12/06 19:17:51;;;;;;;0.10;0.00;;;-0.90;99.90;;;;;;20996752;28;20048;-53
2023/12/06 19:27:53;;;;;;;0.40;0.00;;;-0.50;99.90;;;;;;20938415;28;20120;-54
2023/12/06 19:37:56;;;;;;;0.10;0.00;;;-0.20;99.90;;;;;;20913521;28;20036;-51
2023/12/06 19:47:58;;;;;;;0.00;0.00;;;-0.20;99.90;;;;;;20912623;28;20036;-53
2023/12/06 19:57:59;;;;;;;1.55;0.10;;;-0.30;99.90;;;;;;20911491;28;20505;-51
2023/12/06 20:08:01;;;;;;;0.03;0.00;;;-0.70;99.90;;;;;;20902068;28;20032;-50
2023/12/06 20:18:03;;;;;;;0.28;0.00;;;-0.90;99.90;;;;;;20910064;28;20041;-54
2023/12/06 20:28:06;;;;;;;0.10;0.00;;;-0.90;99.90;;;;;;20908870;28;20094;-47
2023/12/06 20:38:08;;;;;;;0.00;0.00;;;-0.80;99.90;;;;;;20908990;28;20075;-53
2023/12/06 20:48:10;;;;;;;0.15;0.10;;;-0.80;99.90;;;;;;20907827;28;20079;-49
2023/12/06 20:58:11;;;;;;;0.38;0.05;;;-0.60;99.90;;;;;;20889198;28;20044;-52
2023/12/06 21:08:13;;;;;;;2.08;0.00;;;-0.50;99.90;;;;;;20907075;28;20033;-54
2023/12/06 21:18:19;;;;;;;0.00;0.00;;;-0.30;99.90;;;;;;20924085;28;20044;-50
2023/12/06 21:28:20;;;;;;;0.13;0.03;;;-0.50;99.90;;;;;;20926685;28;20037;-46
2023/12/06 21:38:23;;;;;;;0.20;0.00;;;-0.50;99.90;;;;;;20956390;28;20036;-47
2023/12/06 21:48:25;;;;;;;0.03;0.00;;;-0.50;99.90;;;;;;20922184;28;20168;-49
2023/12/06 21:58:30;;;;;;;0.10;0.00;;;-0.60;99.90;;;;;;20902613;28;20029;-49
2023/12/06 22:08:31;;;;;;;0.22;0.10;;;-0.60;99.90;;;;;;20946042;28;20041;-54
2023/12/06 22:18:34;;;;;;;0.03;0.00;;;-0.70;99.90;;;;;;20958560;28;20498;-55
2023/12/06 22:28:35;;;;;;;0.00;0.00;;;-0.70;99.90;;;;;;20973583;28;20036;-49
2023/12/06 22:38:37;;;;;;;0.30;0.10;;;-0.70;99.90;;;;;;20918387;28;20036;-47
2023/12/06 22:48:39;;;;;;;0.10;0.00;;;-0.90;99.90;;;;;;20937945;28;20401;-49
2023/12/06 22:58:41;;;;;;;0.57;0.00;;;-0.70;99.90;;;;;;20918186;28;20536;-52
2023/12/06 23:08:43;;;;;;;0.15;0.08;;;-0.70;99.90;;;;;;20999215;28;20564;-50
2023/12/06 23:18:44;;;;;;;0.10;0.00;;;-0.90;99.90;;;;;;20948785;28;20482;-48
2023/12/06 23:28:46;;;;;;;0.05;0.00;;;-0.90;99.90;;;;;;20968113;28;20079;-54
2023/12/06 23:38:57;;;;;;;0.20;0.00;;;-1.10;99.90;;;;;;20897206;28;20033;-50
2023/12/06 23:48:58;;;;;;;0.20;0.00;;;-1.20;99.90;;;;;;20913920;28;20060;-51
2023/12/06 23:59:00;;;;;;;0.20;0.00;;;-1.10;99.90;;;;;;20910997;28;20036;-53
